Time;durP1;ratioP1;P1;durP2;ratioP2;P2;SDS_P1;SDS_P2;PMS_P1;PMS_P2;Temp;Humidity;BMP_temperature;BMP_pressure;BME280_temperature;BME280_humidity;BME280_pressure;Samples;Min_cycle;Max_cycle;Signal;HPM_P1;HPM_P2
2021/12/30 00:01:38;;;;;;;0.63;0.60;;;;;;;;;;5093016;28;20454;-71
2021/12/30 00:04:04;;;;;;;0.60;0.60;;;;;;;;;;5091561;28;20408;-71
2021/12/30 00:06:37;;;;;;;1.13;0.80;;;;;;;;;;5091585;28;20463;-70
2021/12/30 00:09:03;;;;;;;0.80;0.70;;;;;;;;;;5092980;28;20392;-71
2021/12/30 00:11:31;;;;;;;0.60;0.60;;;;;;;;;;5092845;28;20443;-71
2021/12/30 00:13:57;;;;;;;2.20;0.87;;;;;;;;;;5092681;28;20542;-72
2021/12/30 00:16:23;;;;;;;1.13;0.80;;;;;;;;;;5092878;28;20490;-70
2021/12/30 00:18:49;;;;;;;0.80;0.70;;;;;;;;;;5092716;28;20469;-70
2021/12/30 00:21:15;;;;;;;0.93;0.70;;;;;;;;;;5092695;28;20404;-70
2021/12/30 00:23:42;;;;;;;2.50;1.10;;;;;;;;;;5096133;28;20404;-70
2021/12/30 00:26:08;;;;;;;1.90;0.90;;;;;;;;;;5095287;28;20747;-70
2021/12/30 00:28:34;;;;;;;1.43;0.73;;;;;;;;;;5095248;28;20420;-71
2021/12/30 00:31:00;;;;;;;2.20;0.80;;;;;;;;;;5096361;28;20453;-70
2021/12/30 00:33:27;;;;;;;0.90;0.80;;;;;;;;;;5094910;28;20462;-70
2021/12/30 00:35:53;;;;;;;0.80;0.80;;;;;;;;;;5095142;28;20427;-71
2021/12/30 00:38:20;;;;;;;1.37;0.70;;;;;;;;;;5096056;28;20415;-70
2021/12/30 00:40:46;;;;;;;0.80;0.80;;;;;;;;;;5096221;28;20831;-71
2021/12/30 00:43:12;;;;;;;1.00;0.80;;;;;;;;;;5094836;28;20424;-70
2021/12/30 00:45:38;;;;;;;2.53;0.83;;;;;;;;;;5096236;28;20408;-71
2021/12/30 00:48:05;;;;;;;1.00;0.90;;;;;;;;;;5096177;28;20418;-71
2021/12/30 00:50:31;;;;;;;0.97;0.87;;;;;;;;;;5096043;28;20548;-74
2021/12/30 00:53:01;;;;;;;1.13;0.77;;;;;;;;;;5095913;28;20416;-73
2021/12/30 00:55:27;;;;;;;1.43;0.90;;;;;;;;;;5096043;28;20778;-73
2021/12/30 00:57:53;;;;;;;2.33;0.60;;;;;;;;;;5095693;28;20424;-73
2021/12/30 01:00:20;;;;;;;1.87;0.90;;;;;;;;;;5096011;28;20420;-73
2021/12/30 01:02:47;;;;;;;1.50;0.80;;;;;;;;;;5095707;28;20491;-73
2021/12/30 01:05:13;;;;;;;3.23;0.87;;;;;;;;;;5094420;28;20435;-73
2021/12/30 01:07:39;;;;;;;0.83;0.80;;;;;;;;;;5095795;28;20439;-74
2021/12/30 01:10:07;;;;;;;2.40;0.80;;;;;;;;;;5095685;28;20399;-72
2021/12/30 01:12:33;;;;;;;0.93;0.80;;;;;;;;;;5095561;28;20592;-71
2021/12/30 01:15:06;;;;;;;1.50;0.83;;;;;;;;;;5094176;28;20510;-71
2021/12/30 01:17:48;;;;;;;1.03;0.80;;;;;;;;;;5094566;28;20769;-72
2021/12/30 01:20:16;;;;;;;1.30;0.90;;;;;;;;;;5094238;28;20408;-71
2021/12/30 01:22:42;;;;;;;2.30;0.90;;;;;;;;;;5095445;28;20943;-70
2021/12/30 01:25:11;;;;;;;1.80;0.80;;;;;;;;;;5095439;28;20779;-71
2021/12/30 01:27:39;;;;;;;1.37;0.77;;;;;;;;;;5094134;28;20412;-71
2021/12/30 01:30:06;;;;;;;2.60;1.00;;;;;;;;;;5095301;28;20396;-71
2021/12/30 01:32:32;;;;;;;0.80;0.80;;;;;;;;;;5093867;28;20423;-72
2021/12/30 01:35:00;;;;;;;1.77;0.90;;;;;;;;;;5094322;28;20559;-71
2021/12/30 01:37:26;;;;;;;1.03;0.80;;;;;;;;;;5095043;28;20400;-71
2021/12/30 01:39:53;;;;;;;1.20;0.80;;;;;;;;;;5095069;28;20418;-70
2021/12/30 01:42:20;;;;;;;1.83;1.10;;;;;;;;;;5093774;28;20412;-71
2021/12/30 01:44:46;;;;;;;1.80;1.10;;;;;;;;;;5094929;28;20408;-71
2021/12/30 01:47:12;;;;;;;0.90;0.70;;;;;;;;;;5095040;28;20546;-70
2021/12/30 01:49:38;;;;;;;0.70;0.67;;;;;;;;;;5094970;28;20432;-70
2021/12/30 01:52:05;;;;;;;1.93;0.90;;;;;;;;;;5094813;28;20510;-71
2021/12/30 01:54:31;;;;;;;2.10;1.07;;;;;;;;;;5093493;28;20970;-71
2021/12/30 01:57:02;;;;;;;2.13;0.97;;;;;;;;;;5094811;28;20400;-71
2021/12/30 01:59:28;;;;;;;1.37;0.90;;;;;;;;;;5093321;28;20998;-73
2021/12/30 02:01:56;;;;;;;0.93;0.93;;;;;;;;;;5094763;28;20867;-72
2021/12/30 02:04:23;;;;;;;1.43;0.80;;;;;;;;;;5093240;28;20453;-74
2021/12/30 02:06:49;;;;;;;1.53;0.87;;;;;;;;;;5094594;28;20490;-73
2021/12/30 02:09:18;;;;;;;1.27;0.90;;;;;;;;;;5094564;28;20400;-72
2021/12/30 02:11:44;;;;;;;1.00;0.80;;;;;;;;;;5094659;28;20855;-74
2021/12/30 02:14:10;;;;;;;1.33;0.97;;;;;;;;;;5094333;28;20455;-71
2021/12/30 02:16:37;;;;;;;0.80;0.80;;;;;;;;;;5094319;28;20422;-71
2021/12/30 02:19:03;;;;;;;0.90;0.80;;;;;;;;;;5094294;28;20793;-71
2021/12/30 02:21:29;;;;;;;1.17;0.87;;;;;;;;;;5093145;28;20404;-71
2021/12/30 02:23:57;;;;;;;1.27;0.70;;;;;;;;;;5094261;28;20400;-70
2021/12/30 02:26:24;;;;;;;1.30;0.80;;;;;;;;;;5094305;28;20400;-70
2021/12/30 02:28:50;;;;;;;3.23;1.00;;;;;;;;;;5094130;28;20395;-71
2021/12/30 02:31:19;;;;;;;1.77;0.90;;;;;;;;;;5094163;28;20447;-71
2021/12/30 02:33:45;;;;;;;0.90;0.83;;;;;;;;;;5094013;28;20467;-71
2021/12/30 02:36:12;;;;;;;0.93;0.80;;;;;;;;;;5092710;28;20428;-71
2021/12/30 02:38:43;;;;;;;1.00;0.60;;;;;;;;;;5093835;28;20954;-71
2021/12/30 02:41:14;;;;;;;0.80;0.80;;;;;;;;;;5094027;28;20407;-71
2021/12/30 02:43:41;;;;;;;1.37;1.27;;;;;;;;;;5093936;28;20404;-71
2021/12/30 02:46:07;;;;;;;0.90;0.80;;;;;;;;;;5093849;28;20811;-71
2021/12/30 02:48:33;;;;;;;2.70;0.80;;;;;;;;;;5092510;28;20412;-71
2021/12/30 02:51:00;;;;;;;3.00;2.27;;;;;;;;;;5093767;28;20891;-71
2021/12/30 02:53:26;;;;;;;2.83;0.90;;;;;;;;;;5092329;28;20454;-71
2021/12/30 02:55:53;;;;;;;0.77;0.77;;;;;;;;;;5093915;28;20972;-71
2021/12/30 02:58:20;;;;;;;1.13;0.83;;;;;;;;;;5093390;28;20953;-72
2021/12/30 03:00:46;;;;;;;1.77;0.70;;;;;;;;;;5093757;28;20416;-72
2021/12/30 03:03:19;;;;;;;0.77;0.77;;;;;;;;;;5093562;28;20435;-72
2021/12/30 03:05:46;;;;;;;1.10;0.80;;;;;;;;;;5093536;28;20452;-71
2021/12/30 03:08:12;;;;;;;2.80;0.90;;;;;;;;;;5093630;28;20402;-74
2021/12/30 03:10:38;;;;;;;1.37;1.27;;;;;;;;;;5093675;28;20404;-71
2021/12/30 03:13:06;;;;;;;1.13;1.00;;;;;;;;;;5092113;28;20404;-72
2021/12/30 03:15:32;;;;;;;2.07;1.10;;;;;;;;;;5093557;28;20448;-71
2021/12/30 03:17:58;;;;;;;2.10;1.10;;;;;;;;;;5092137;28;20411;-71
2021/12/30 03:20:24;;;;;;;1.53;0.73;;;;;;;;;;5093406;28;20408;-71
2021/12/30 03:22:51;;;;;;;1.13;1.00;;;;;;;;;;5093325;28;20410;-72
2021/12/30 03:25:17;;;;;;;1.43;0.83;;;;;;;;;;5093481;28;20454;-71
2021/12/30 03:27:44;;;;;;;1.80;0.80;;;;;;;;;;5093348;28;20468;-70
2021/12/30 03:30:12;;;;;;;0.80;0.70;;;;;;;;;;5091953;28;20432;-70
2021/12/30 03:32:38;;;;;;;0.77;0.77;;;;;;;;;;5091959;28;20416;-70
2021/12/30 03:35:04;;;;;;;0.93;0.70;;;;;;;;;;5091368;28;20471;-70
2021/12/30 03:37:30;;;;;;;0.80;0.70;;;;;;;;;;5093258;28;20414;-70
2021/12/30 03:39:56;;;;;;;1.33;0.90;;;;;;;;;;5093273;28;20427;-71
2021/12/30 03:42:22;;;;;;;0.70;0.70;;;;;;;;;;5093091;28;20879;-71
2021/12/30 03:44:56;;;;;;;1.53;0.80;;;;;;;;;;5093218;28;20411;-71
2021/12/30 03:47:22;;;;;;;1.47;0.70;;;;;;;;;;5091932;28;20403;-71
2021/12/30 03:49:48;;;;;;;2.00;0.70;;;;;;;;;;5093227;28;21006;-71
2021/12/30 03:52:19;;;;;;;0.67;0.67;;;;;;;;;;5093057;28;20411;-70
2021/12/30 03:54:45;;;;;;;1.73;0.80;;;;;;;;;;5093048;28;20463;-71
2021/12/30 03:57:11;;;;;;;1.07;0.70;;;;;;;;;;5094248;28;20423;-71
2021/12/30 03:59:37;;;;;;;0.70;0.70;;;;;;;;;;5096816;28;20969;-72
2021/12/30 04:02:04;;;;;;;0.80;0.80;;;;;;;;;;5096995;28;20406;-72
2021/12/30 04:04:30;;;;;;;2.10;0.80;;;;;;;;;;5096986;28;20458;-74
2021/12/30 04:06:56;;;;;;;0.73;0.73;;;;;;;;;;5096909;28;20495;-71
2021/12/30 04:09:22;;;;;;;1.10;1.00;;;;;;;;;;5096847;28;20498;-71
2021/12/30 04:11:48;;;;;;;0.77;0.77;;;;;;;;;;5096923;28;20443;-71
2021/12/30 04:14:14;;;;;;;2.00;0.80;;;;;;;;;;5096612;28;20463;-71
2021/12/30 04:16:40;;;;;;;1.37;1.27;;;;;;;;;;5096584;28;20438;-71
2021/12/30 04:19:06;;;;;;;0.77;0.77;;;;;;;;;;5096673;28;20408;-71
2021/12/30 04:21:32;;;;;;;1.27;0.80;;;;;;;;;;5096673;28;20411;-70
2021/12/30 04:23:58;;;;;;;0.80;0.80;;;;;;;;;;5096476;28;21020;-71
2021/12/30 04:26:25;;;;;;;1.00;0.70;;;;;;;;;;5096571;28;20400;-71
2021/12/30 04:28:51;;;;;;;1.53;1.03;;;;;;;;;;5095285;28;20899;-71
2021/12/30 04:31:17;;;;;;;0.90;0.80;;;;;;;;;;5096415;28;20406;-71
2021/12/30 04:33:43;;;;;;;1.53;0.77;;;;;;;;;;5096314;28;20467;-72
2021/12/30 04:36:09;;;;;;;0.90;0.80;;;;;;;;;;5094900;28;20435;-71
2021/12/30 04:38:36;;;;;;;1.10;0.90;;;;;;;;;;5096338;28;20416;-71
2021/12/30 04:41:02;;;;;;;1.07;0.87;;;;;;;;;;5096313;28;20418;-71
2021/12/30 04:43:28;;;;;;;1.63;0.80;;;;;;;;;;5096111;28;20419;-71
2021/12/30 04:45:54;;;;;;;2.20;0.90;;;;;;;;;;5095011;28;20411;-71
2021/12/30 04:48:21;;;;;;;0.70;0.70;;;;;;;;;;5094906;28;20844;-72
2021/12/30 04:50:48;;;;;;;0.80;0.70;;;;;;;;;;5096174;28;20400;-72
2021/12/30 04:53:14;;;;;;;1.10;0.87;;;;;;;;;;5095899;28;20482;-72
2021/12/30 04:55:40;;;;;;;1.87;0.70;;;;;;;;;;5094557;28;20507;-71
2021/12/30 04:58:07;;;;;;;3.93;0.80;;;;;;;;;;5095797;28;20400;-72
2021/12/30 05:00:33;;;;;;;1.33;0.70;;;;;;;;;;5096031;28;20902;-72
2021/12/30 05:03:13;;;;;;;1.13;0.97;;;;;;;;;;5095888;28;20414;-72
2021/12/30 05:05:42;;;;;;;0.60;0.60;;;;;;;;;;5095750;28;20795;-72
2021/12/30 05:08:08;;;;;;;1.63;0.80;;;;;;;;;;5093736;28;20420;-71
2021/12/30 05:10:35;;;;;;;0.80;0.80;;;;;;;;;;5095316;28;20407;-71
2021/12/30 05:13:02;;;;;;;0.93;0.80;;;;;;;;;;5094216;28;20518;-72
2021/12/30 05:15:28;;;;;;;0.70;0.70;;;;;;;;;;5094213;28;20556;-71
2021/12/30 05:17:54;;;;;;;0.70;0.70;;;;;;;;;;5094307;28;20407;-71
2021/12/30 05:20:21;;;;;;;0.70;0.70;;;;;;;;;;5095642;28;20477;-71
2021/12/30 05:22:47;;;;;;;1.13;0.90;;;;;;;;;;5095446;28;20403;-71
2021/12/30 05:25:13;;;;;;;1.47;0.80;;;;;;;;;;5095337;28;20404;-71
2021/12/30 05:27:40;;;;;;;0.60;0.60;;;;;;;;;;5095352;28;20747;-71
2021/12/30 05:30:07;;;;;;;0.63;0.63;;;;;;;;;;5095306;28;20435;-71
2021/12/30 05:32:34;;;;;;;0.97;0.70;;;;;;;;;;5094033;28;20418;-72
2021/12/30 05:35:00;;;;;;;0.80;0.80;;;;;;;;;;5095015;28;20482;-72
2021/12/30 05:37:26;;;;;;;0.97;0.70;;;;;;;;;;5093811;28;20435;-72
2021/12/30 05:39:52;;;;;;;1.23;0.80;;;;;;;;;;5095154;28;20450;-73
2021/12/30 05:42:22;;;;;;;0.80;0.80;;;;;;;;;;5094941;28;20494;-72
2021/12/30 05:44:48;;;;;;;1.10;0.70;;;;;;;;;;5095076;28;20446;-72
2021/12/30 05:47:14;;;;;;;0.70;0.70;;;;;;;;;;5094867;28;20412;-70
2021/12/30 05:49:40;;;;;;;0.70;0.63;;;;;;;;;;5093596;28;20857;-72
2021/12/30 05:52:06;;;;;;;1.67;1.20;;;;;;;;;;5094850;28;20502;-72
2021/12/30 05:54:32;;;;;;;0.70;0.67;;;;;;;;;;5094710;28;20942;-72
2021/12/30 05:56:58;;;;;;;0.90;0.67;;;;;;;;;;5094850;28;20403;-73
2021/12/30 05:59:24;;;;;;;3.20;0.73;;;;;;;;;;5094539;28;20467;-72
2021/12/30 06:01:50;;;;;;;1.00;0.60;;;;;;;;;;5094586;28;20995;-72
2021/12/30 06:04:16;;;;;;;0.70;0.63;;;;;;;;;;5093275;28;20408;-71
2021/12/30 06:06:43;;;;;;;0.80;0.80;;;;;;;;;;5094576;28;20457;-71
2021/12/30 06:09:09;;;;;;;1.00;0.67;;;;;;;;;;5093303;28;20400;-71
2021/12/30 06:11:35;;;;;;;0.73;0.73;;;;;;;;;;5094517;28;20415;-72
2021/12/30 06:14:01;;;;;;;0.70;0.60;;;;;;;;;;5094345;28;20472;-72
2021/12/30 06:16:27;;;;;;;0.60;0.60;;;;;;;;;;5094357;28;20486;-72
2021/12/30 06:18:53;;;;;;;2.10;0.60;;;;;;;;;;5093066;28;20469;-72
2021/12/30 06:21:19;;;;;;;0.70;0.63;;;;;;;;;;5094053;28;20430;-72
2021/12/30 06:23:45;;;;;;;0.60;0.60;;;;;;;;;;5094313;28;20404;-72
2021/12/30 06:26:11;;;;;;;1.33;0.60;;;;;;;;;;5094252;28;20412;-72
2021/12/30 06:28:37;;;;;;;0.70;0.63;;;;;;;;;;5094178;28;20528;-72
2021/12/30 06:31:03;;;;;;;1.27;0.67;;;;;;;;;;5092929;28;20408;-72
2021/12/30 06:33:29;;;;;;;0.70;0.63;;;;;;;;;;5093920;28;20895;-71
2021/12/30 06:35:55;;;;;;;0.70;0.63;;;;;;;;;;5092682;28;20450;-72
2021/12/30 06:38:21;;;;;;;0.70;0.70;;;;;;;;;;5093945;28;20392;-72
2021/12/30 06:40:47;;;;;;;0.70;0.70;;;;;;;;;;5093989;28;20414;-71
2021/12/30 06:43:13;;;;;;;0.70;0.60;;;;;;;;;;5093985;28;20391;-73
2021/12/30 06:45:39;;;;;;;0.73;0.70;;;;;;;;;;5094030;28;20503;-72
2021/12/30 06:48:07;;;;;;;1.73;0.80;;;;;;;;;;5093819;28;20509;-73
2021/12/30 06:50:33;;;;;;;1.27;0.80;;;;;;;;;;5093937;28;20469;-73
2021/12/30 06:52:59;;;;;;;2.70;0.70;;;;;;;;;;5093785;28;20891;-73
2021/12/30 06:55:25;;;;;;;0.70;0.60;;;;;;;;;;5093710;28;20470;-74
2021/12/30 06:57:52;;;;;;;1.33;0.77;;;;;;;;;;5093637;28;20403;-73
2021/12/30 07:00:18;;;;;;;0.80;0.77;;;;;;;;;;5093777;28;20503;-71
2021/12/30 07:02:44;;;;;;;1.00;0.80;;;;;;;;;;5093562;28;20400;-72
2021/12/30 07:05:11;;;;;;;0.67;0.60;;;;;;;;;;5092333;28;20424;-72
2021/12/30 07:07:37;;;;;;;1.00;0.60;;;;;;;;;;5092245;28;20412;-71
2021/12/30 07:10:04;;;;;;;1.43;0.80;;;;;;;;;;5092268;28;20438;-72
2021/12/30 07:12:30;;;;;;;3.23;0.80;;;;;;;;;;5092155;28;20539;-71
2021/12/30 07:14:57;;;;;;;1.90;0.83;;;;;;;;;;5093265;28;20969;-72
2021/12/30 07:17:23;;;;;;;0.80;0.70;;;;;;;;;;5093505;28;20398;-72
2021/12/30 07:19:49;;;;;;;0.80;0.80;;;;;;;;;;5093385;28;20399;-73
2021/12/30 07:22:15;;;;;;;0.90;0.60;;;;;;;;;;5092060;28;20414;-72
2021/12/30 07:24:41;;;;;;;1.73;0.80;;;;;;;;;;5092154;28;20419;-72
2021/12/30 07:27:07;;;;;;;0.60;0.53;;;;;;;;;;5093320;28;20431;-73
2021/12/30 07:29:33;;;;;;;2.30;1.23;;;;;;;;;;5093289;28;20935;-72
2021/12/30 07:31:59;;;;;;;1.47;0.70;;;;;;;;;;5092492;28;20414;-72
2021/12/30 07:34:25;;;;;;;0.90;0.70;;;;;;;;;;5093071;28;20473;-71
2021/12/30 07:36:51;;;;;;;0.63;0.63;;;;;;;;;;5091954;28;20424;-77
2021/12/30 07:39:17;;;;;;;0.70;0.70;;;;;;;;;;5093163;28;20887;-77
2021/12/30 07:41:43;;;;;;;0.70;0.60;;;;;;;;;;5092023;28;20408;-76
2021/12/30 07:44:09;;;;;;;0.77;0.77;;;;;;;;;;5093213;28;20435;-76
2021/12/30 07:46:35;;;;;;;0.70;0.63;;;;;;;;;;5093096;28;20412;-77
2021/12/30 07:49:01;;;;;;;0.70;0.60;;;;;;;;;;5091864;28;20576;-76
2021/12/30 07:51:28;;;;;;;1.53;0.90;;;;;;;;;;5093179;28;20392;-76
2021/12/30 07:53:54;;;;;;;0.90;0.70;;;;;;;;;;5092996;28;20566;-76
2021/12/30 07:56:20;;;;;;;1.47;0.60;;;;;;;;;;5092981;28;20533;-76
2021/12/30 07:58:46;;;;;;;1.10;1.00;;;;;;;;;;5092774;28;20546;-76
2021/12/30 08:01:13;;;;;;;0.80;0.70;;;;;;;;;;5093135;28;20433;-75
2021/12/30 08:03:39;;;;;;;0.80;0.60;;;;;;;;;;5092972;28;20492;-75
2021/12/30 08:06:05;;;;;;;0.80;0.80;;;;;;;;;;5092906;28;20439;-75
2021/12/30 08:08:31;;;;;;;2.00;0.90;;;;;;;;;;5092806;28;20400;-75
2021/12/30 08:10:57;;;;;;;0.97;0.77;;;;;;;;;;5092856;28;20424;-75
2021/12/30 08:13:24;;;;;;;1.20;0.90;;;;;;;;;;5092647;28;20412;-76
2021/12/30 08:15:51;;;;;;;11.77;1.97;;;;;;;;;;5092731;28;20427;-75
2021/12/30 08:18:17;;;;;;;2.70;1.10;;;;;;;;;;5092898;28;20439;-75
2021/12/30 08:20:43;;;;;;;10.10;1.63;;;;;;;;;;5092910;28;20408;-76
2021/12/30 08:23:09;;;;;;;5.47;1.40;;;;;;;;;;5092636;28;20399;-74
2021/12/30 08:25:35;;;;;;;2.53;0.73;;;;;;;;;;5092733;28;20404;-75
2021/12/30 08:28:01;;;;;;;1.90;0.80;;;;;;;;;;5092710;28;20399;-72
2021/12/30 08:30:27;;;;;;;2.27;0.70;;;;;;;;;;5092740;28;20399;-75
2021/12/30 08:32:54;;;;;;;3.60;0.70;;;;;;;;;;5092620;28;20404;-75
2021/12/30 08:35:23;;;;;;;1.20;0.80;;;;;;;;;;5092385;28;20467;-75
2021/12/30 08:37:50;;;;;;;3.33;1.20;;;;;;;;;;5092697;28;20400;-76
2021/12/30 08:40:16;;;;;;;1.93;0.87;;;;;;;;;;5092617;28;20419;-75
2021/12/30 08:42:43;;;;;;;1.60;0.80;;;;;;;;;;5092802;28;20763;-75
2021/12/30 08:45:09;;;;;;;2.07;1.10;;;;;;;;;;5096144;28;20396;-73
2021/12/30 08:47:36;;;;;;;1.77;0.80;;;;;;;;;;5096190;28;20400;-72
2021/12/30 08:50:03;;;;;;;1.57;0.90;;;;;;;;;;5094909;28;20451;-74
2021/12/30 08:52:30;;;;;;;0.70;0.70;;;;;;;;;;5096039;28;20492;-74
2021/12/30 08:54:59;;;;;;;1.40;0.70;;;;;;;;;;5094499;28;20471;-73
2021/12/30 08:57:25;;;;;;;3.47;0.80;;;;;;;;;;5094763;28;20404;-71
2021/12/30 08:59:51;;;;;;;3.17;0.80;;;;;;;;;;5095658;28;21011;-71
2021/12/30 09:02:17;;;;;;;0.70;0.70;;;;;;;;;;5094582;28;20438;-71
2021/12/30 09:04:46;;;;;;;1.17;1.00;;;;;;;;;;5095705;28;20428;-71
2021/12/30 09:07:13;;;;;;;5.47;1.00;;;;;;;;;;5095865;28;20408;-73
2021/12/30 09:09:39;;;;;;;3.10;1.30;;;;;;;;;;5094496;28;20529;-73
2021/12/30 09:12:06;;;;;;;1.97;1.03;;;;;;;;;;5094437;28;20410;-73
2021/12/30 09:14:32;;;;;;;2.40;0.90;;;;;;;;;;5094152;28;21057;-73
2021/12/30 09:16:57;;;;;;;2.40;1.10;;;;;;;;;;5095564;28;20498;-72
2021/12/30 09:19:23;;;;;;;4.50;1.60;;;;;;;;;;5095666;28;20468;-74
2021/12/30 09:21:50;;;;;;;2.00;0.93;;;;;;;;;;5095416;28;20759;-72
2021/12/30 09:24:16;;;;;;;0.90;0.90;;;;;;;;;;5094267;28;20422;-74
2021/12/30 09:26:42;;;;;;;1.07;0.97;;;;;;;;;;5095415;28;20542;-75
2021/12/30 09:29:11;;;;;;;2.87;1.10;;;;;;;;;;5095319;28;20494;-73
2021/12/30 09:31:41;;;;;;;3.80;0.80;;;;;;;;;;5095246;28;20425;-72
2021/12/30 09:34:07;;;;;;;1.93;0.90;;;;;;;;;;5095000;28;20451;-73
2021/12/30 09:36:33;;;;;;;5.40;1.00;;;;;;;;;;5095193;28;20606;-75
2021/12/30 09:38:59;;;;;;;1.20;0.80;;;;;;;;;;5095204;28;20396;-75
2021/12/30 09:41:26;;;;;;;0.73;0.70;;;;;;;;;;5095002;28;20415;-74
2021/12/30 09:43:52;;;;;;;2.00;0.83;;;;;;;;;;5095100;28;20402;-73
2021/12/30 09:46:18;;;;;;;0.73;0.73;;;;;;;;;;5095040;28;20403;-72
2021/12/30 09:48:44;;;;;;;1.43;0.70;;;;;;;;;;5095074;28;20395;-74
2021/12/30 09:51:11;;;;;;;2.17;0.90;;;;;;;;;;5094910;28;20449;-75
2021/12/30 09:53:37;;;;;;;0.83;0.70;;;;;;;;;;5094728;28;20894;-72
2021/12/30 09:56:03;;;;;;;0.97;0.80;;;;;;;;;;5094171;28;20832;-73
2021/12/30 09:58:29;;;;;;;1.03;0.70;;;;;;;;;;5093346;28;20491;-72
2021/12/30 10:00:56;;;;;;;0.80;0.80;;;;;;;;;;5094725;28;20475;-73
2021/12/30 10:03:22;;;;;;;0.80;0.60;;;;;;;;;;5093395;28;20460;-72
2021/12/30 10:05:48;;;;;;;1.90;0.73;;;;;;;;;;5094619;28;20420;-72
2021/12/30 10:08:14;;;;;;;0.80;0.70;;;;;;;;;;5094546;28;20411;-73
2021/12/30 10:10:43;;;;;;;0.60;0.60;;;;;;;;;;5094437;28;20448;-72
2021/12/30 10:13:27;;;;;;;0.73;0.73;;;;;;;;;;5094498;28;20404;-72
2021/12/30 10:15:58;;;;;;;0.73;0.70;;;;;;;;;;5093002;28;20442;-72
2021/12/30 10:18:26;;;;;;;0.90;0.90;;;;;;;;;;5094497;28;20480;-72
2021/12/30 10:20:53;;;;;;;1.83;0.90;;;;;;;;;;5093112;28;20419;-72
2021/12/30 10:23:21;;;;;;;1.03;0.90;;;;;;;;;;5093053;28;20408;-72
2021/12/30 10:25:49;;;;;;;1.93;0.80;;;;;;;;;;5094258;28;20408;-74
2021/12/30 10:28:35;;;;;;;0.80;0.63;;;;;;;;;;5094294;28;20408;-72
2021/12/30 10:31:14;;;;;;;1.47;0.70;;;;;;;;;;5094342;28;20404;-72
2021/12/30 10:33:57;;;;;;;0.90;0.90;;;;;;;;;;5092788;28;20470;-72
2021/12/30 10:36:28;;;;;;;0.80;0.80;;;;;;;;;;5093888;28;20423;-75
2021/12/30 10:38:55;;;;;;;0.70;0.70;;;;;;;;;;5093837;28;20398;-72
2021/12/30 10:41:25;;;;;;;0.80;0.60;;;;;;;;;;5092522;28;20404;-72
2021/12/30 10:43:53;;;;;;;0.70;0.70;;;;;;;;;;5092760;28;20473;-72
2021/12/30 10:46:24;;;;;;;0.80;0.67;;;;;;;;;;5093978;28;20399;-72
2021/12/30 10:48:55;;;;;;;1.00;0.90;;;;;;;;;;5094020;28;20404;-71
2021/12/30 10:51:28;;;;;;;1.57;0.80;;;;;;;;;;5093866;28;20399;-74
2021/12/30 10:53:55;;;;;;;0.80;0.80;;;;;;;;;;5093807;28;20812;-72
2021/12/30 10:56:29;;;;;;;0.60;0.60;;;;;;;;;;5093707;28;20408;-74
2021/12/30 10:59:15;;;;;;;0.80;0.60;;;;;;;;;;5093527;28;20486;-72
2021/12/30 11:01:46;;;;;;;0.77;0.60;;;;;;;;;;5093345;28;20816;-72
2021/12/30 11:04:13;;;;;;;0.83;0.70;;;;;;;;;;5093522;28;20476;-72
2021/12/30 11:06:39;;;;;;;1.10;0.80;;;;;;;;;;5092595;28;20408;-72
2021/12/30 11:09:09;;;;;;;1.10;0.90;;;;;;;;;;5093546;28;21023;-72
2021/12/30 11:11:35;;;;;;;0.77;0.77;;;;;;;;;;5093398;28;20415;-72
2021/12/30 11:14:08;;;;;;;1.00;0.70;;;;;;;;;;5092087;28;20507;-72
2021/12/30 11:16:51;;;;;;;0.60;0.60;;;;;;;;;;5092080;28;20411;-72
2021/12/30 11:19:17;;;;;;;0.70;0.70;;;;;;;;;;5093288;28;20395;-72
2021/12/30 11:21:44;;;;;;;0.70;0.70;;;;;;;;;;5091866;28;20989;-75
2021/12/30 11:24:12;;;;;;;0.67;0.67;;;;;;;;;;5093391;28;20921;-76
2021/12/30 11:26:38;;;;;;;0.70;0.70;;;;;;;;;;5092159;28;20412;-74
2021/12/30 11:29:05;;;;;;;0.60;0.60;;;;;;;;;;5093313;28;20754;-75
2021/12/30 11:31:32;;;;;;;0.67;0.60;;;;;;;;;;5092036;28;20753;-72
2021/12/30 11:33:58;;;;;;;0.80;0.70;;;;;;;;;;5093034;28;20508;-74
2021/12/30 11:36:25;;;;;;;1.20;0.80;;;;;;;;;;5092988;28;20418;-72
2021/12/30 11:38:51;;;;;;;0.60;0.60;;;;;;;;;;5091841;28;20392;-74
2021/12/30 11:41:22;;;;;;;0.60;0.50;;;;;;;;;;5092860;28;20412;-71
2021/12/30 11:43:49;;;;;;;1.47;0.60;;;;;;;;;;5093103;28;20396;-72
2021/12/30 11:46:41;;;;;;;1.10;0.80;;;;;;;;;;5093061;28;20392;-74
2021/12/30 11:49:08;;;;;;;0.60;0.60;;;;;;;;;;5089545;28;20416;-73
2021/12/30 11:51:48;;;;;;;0.60;0.60;;;;;;;;;;5093132;28;20403;-76
2021/12/30 11:54:33;;;;;;;1.10;0.57;;;;;;;;;;5091572;28;20486;-72
2021/12/30 11:57:17;;;;;;;0.60;0.60;;;;;;;;;;5093026;28;20456;-72
2021/12/30 11:59:43;;;;;;;0.70;0.60;;;;;;;;;;5092851;28;20451;-74
2021/12/30 12:02:28;;;;;;;1.53;0.80;;;;;;;;;;5092975;28;20891;-72
2021/12/30 12:04:54;;;;;;;0.80;0.60;;;;;;;;;;5092937;28;20457;-73
2021/12/30 12:07:22;;;;;;;2.03;1.80;;;;;;;;;;5092898;28;20404;-73
2021/12/30 12:09:48;;;;;;;0.80;0.77;;;;;;;;;;5091605;28;20503;-75
2021/12/30 12:12:16;;;;;;;0.60;0.60;;;;;;;;;;5091535;28;20404;-75
2021/12/30 12:14:48;;;;;;;0.70;0.70;;;;;;;;;;5092555;28;20848;-73
2021/12/30 12:17:19;;;;;;;0.60;0.50;;;;;;;;;;5092773;28;20400;-75
2021/12/30 12:19:56;;;;;;;1.47;0.50;;;;;;;;;;5095274;28;20506;-72
2021/12/30 12:22:22;;;;;;;0.63;0.60;;;;;;;;;;5096826;28;20410;-73
2021/12/30 12:24:52;;;;;;;0.70;0.50;;;;;;;;;;5096674;28;20400;-74
2021/12/30 12:27:21;;;;;;;0.70;0.60;;;;;;;;;;5096517;28;20556;-74
2021/12/30 12:29:51;;;;;;;0.70;0.60;;;;;;;;;;5095317;28;20447;-73
2021/12/30 12:32:19;;;;;;;0.60;0.53;;;;;;;;;;5096381;28;20851;-75
2021/12/30 12:34:46;;;;;;;0.80;0.63;;;;;;;;;;5094839;28;20807;-74
2021/12/30 12:37:37;;;;;;;0.60;0.60;;;;;;;;;;5094981;28;20808;-74
2021/12/30 12:40:11;;;;;;;0.77;0.70;;;;;;;;;;5082902;28;20424;-76
2021/12/30 12:42:43;;;;;;;1.10;0.70;;;;;;;;;;5096245;28;20407;-73
2021/12/30 12:45:16;;;;;;;0.80;0.60;;;;;;;;;;5096264;28;20388;-75
2021/12/30 12:47:42;;;;;;;0.60;0.50;;;;;;;;;;5096334;28;20500;-73
2021/12/30 12:50:09;;;;;;;0.60;0.60;;;;;;;;;;5096272;28;20428;-76
2021/12/30 12:53:01;;;;;;;0.60;0.60;;;;;;;;;;5095972;28;20396;-72
2021/12/30 12:55:27;;;;;;;0.60;0.53;;;;;;;;;;5092160;28;20475;-74
2021/12/30 12:57:53;;;;;;;0.60;0.60;;;;;;;;;;5095878;28;20403;-72
2021/12/30 13:00:19;;;;;;;0.60;0.60;;;;;;;;;;5094672;28;20427;-73
2021/12/30 13:02:48;;;;;;;0.80;0.60;;;;;;;;;;5095770;28;20412;-73
2021/12/30 13:05:15;;;;;;;0.50;0.50;;;;;;;;;;5095723;28;20509;-73
2021/12/30 13:07:42;;;;;;;0.87;0.60;;;;;;;;;;5094535;28;20447;-74
2021/12/30 13:10:16;;;;;;;1.23;0.50;;;;;;;;;;5095759;28;20495;-74
2021/12/30 13:12:45;;;;;;;0.60;0.50;;;;;;;;;;5094365;28;20418;-75
2021/12/30 13:15:15;;;;;;;0.67;0.67;;;;;;;;;;5094307;28;20471;-73
2021/12/30 13:17:43;;;;;;;0.60;0.57;;;;;;;;;;5095633;28;20404;-74
2021/12/30 13:20:10;;;;;;;0.83;0.70;;;;;;;;;;5095724;28;20396;-75
2021/12/30 13:22:36;;;;;;;1.13;1.13;;;;;;;;;;5095408;28;20902;-73
2021/12/30 13:25:03;;;;;;;2.60;0.67;;;;;;;;;;5095422;28;20411;-75
2021/12/30 13:27:37;;;;;;;0.60;0.60;;;;;;;;;;5095424;28;20400;-73
2021/12/30 13:30:06;;;;;;;1.00;0.60;;;;;;;;;;5094327;28;20572;-75
2021/12/30 13:32:33;;;;;;;0.70;0.70;;;;;;;;;;5094019;28;20490;-72
2021/12/30 13:35:05;;;;;;;0.57;0.50;;;;;;;;;;5093745;28;20474;-75
2021/12/30 13:37:51;;;;;;;1.67;0.80;;;;;;;;;;5095148;28;20403;-74
2021/12/30 13:40:28;;;;;;;2.10;0.73;;;;;;;;;;5094962;28;20396;-72
2021/12/30 13:43:00;;;;;;;0.70;0.63;;;;;;;;;;5095217;28;20490;-72
2021/12/30 13:45:27;;;;;;;0.90;0.80;;;;;;;;;;5095026;28;20491;-74
2021/12/30 13:47:54;;;;;;;0.60;0.60;;;;;;;;;;5093696;28;20451;-73
2021/12/30 13:50:22;;;;;;;0.80;0.70;;;;;;;;;;5093630;28;20934;-73
2021/12/30 13:52:49;;;;;;;0.60;0.60;;;;;;;;;;5094845;28;20461;-74
2021/12/30 13:55:36;;;;;;;0.70;0.70;;;;;;;;;;5094656;28;20512;-72
2021/12/30 13:58:05;;;;;;;1.00;0.70;;;;;;;;;;5094693;28;20775;-72
2021/12/30 14:00:34;;;;;;;1.37;0.80;;;;;;;;;;5094805;28;20434;-72
2021/12/30 14:03:01;;;;;;;1.43;0.80;;;;;;;;;;5094654;28;20407;-72
2021/12/30 14:05:27;;;;;;;0.70;0.60;;;;;;;;;;5094520;28;20420;-71
2021/12/30 14:07:53;;;;;;;1.77;0.83;;;;;;;;;;5094615;28;20431;-72
2021/12/30 14:10:19;;;;;;;0.93;0.70;;;;;;;;;;5094561;28;20428;-72
2021/12/30 14:12:59;;;;;;;0.87;0.77;;;;;;;;;;5094447;28;20422;-72
2021/12/30 14:15:25;;;;;;;0.50;0.50;;;;;;;;;;5094447;28;20482;-71
2021/12/30 14:17:59;;;;;;;0.70;0.70;;;;;;;;;;5094375;28;20772;-72
2021/12/30 14:20:25;;;;;;;0.70;0.70;;;;;;;;;;5094347;28;20400;-72
2021/12/30 14:22:52;;;;;;;0.80;0.70;;;;;;;;;;5092898;28;20942;-76
2021/12/30 14:25:38;;;;;;;1.33;0.83;;;;;;;;;;5094261;28;20485;-75
2021/12/30 14:28:24;;;;;;;1.00;1.00;;;;;;;;;;5094277;28;20414;-72
2021/12/30 14:30:51;;;;;;;0.90;0.70;;;;;;;;;;5094088;28;20416;-73
2021/12/30 14:33:38;;;;;;;1.07;0.87;;;;;;;;;;5094162;28;20415;-75
2021/12/30 14:36:22;;;;;;;0.90;0.90;;;;;;;;;;5092654;28;20805;-72
2021/12/30 14:38:49;;;;;;;1.00;0.90;;;;;;;;;;5094118;28;20396;-72
2021/12/30 14:41:16;;;;;;;0.80;0.70;;;;;;;;;;5093805;28;20480;-71
2021/12/30 14:44:01;;;;;;;1.60;1.00;;;;;;;;;;5093975;28;20412;-73
2021/12/30 14:46:27;;;;;;;0.87;0.87;;;;;;;;;;5092696;28;20407;-76
2021/12/30 14:49:00;;;;;;;0.70;0.70;;;;;;;;;;5092653;28;20423;-75